createdAt,value
2019-02-06T00:01:27.758Z,37.33
2019-02-06T00:03:31.529Z,31.00
2019-02-06T00:05:35.449Z,21.83
2019-02-06T00:07:39.184Z,17.73
2019-02-06T00:09:42.953Z,21.27
2019-02-06T00:11:46.672Z,17.13
2019-02-06T00:13:50.466Z,20.00
2019-02-06T00:15:55.750Z,22.93
2019-02-06T00:17:59.551Z,16.67
2019-02-06T00:20:04.986Z,19.90
2019-02-06T00:22:08.775Z,16.73
2019-02-06T00:24:12.634Z,17.70
2019-02-06T00:26:16.403Z,17.63
2019-02-06T00:28:20.194Z,20.23
2019-02-06T00:30:25.498Z,18.97
2019-02-06T00:32:29.173Z,18.63
2019-02-06T00:34:33.446Z,19.83
2019-02-06T00:36:37.192Z,16.80
2019-02-06T00:38:41.030Z,19.10
2019-02-06T00:40:45.042Z,20.00
2019-02-06T00:42:48.859Z,16.40
2019-02-06T00:44:52.560Z,18.97
2019-02-06T00:46:56.367Z,17.60
2019-02-06T00:49:00.004Z,16.73
2019-02-06T00:51:03.823Z,18.83
2019-02-06T00:53:07.643Z,19.43
2019-02-06T00:55:13.196Z,15.43
2019-02-06T00:57:16.917Z,17.73
2019-02-06T00:59:20.623Z,18.20
2019-02-06T01:01:24.870Z,21.03
2019-02-06T01:03:28.730Z,21.60
2019-02-06T01:05:38.374Z,21.27
2019-02-06T01:07:37.957Z,28.50
2019-02-06T01:09:41.784Z,23.47
2019-02-06T01:11:45.931Z,21.47
2019-02-06T01:13:49.691Z,21.10
2019-02-06T01:15:53.476Z,20.03
2019-02-06T01:17:57.192Z,21.70
2019-02-06T01:20:01.583Z,20.53
2019-02-06T01:22:05.397Z,23.80
2019-02-06T01:24:09.225Z,24.70
2019-02-06T01:26:13.113Z,26.27
2019-02-06T01:28:16.879Z,20.67
2019-02-06T01:30:25.134Z,27.27
2019-02-06T01:32:28.361Z,25.67
2019-02-06T01:34:32.188Z,27.40
2019-02-06T01:36:37.862Z,27.73
2019-02-06T01:38:41.662Z,26.40
2019-02-06T01:40:45.529Z,29.90
2019-02-06T01:42:49.335Z,26.10
2019-02-06T01:44:53.459Z,25.80
2019-02-06T01:46:57.423Z,26.60
2019-02-06T01:49:01.038Z,26.33
2019-02-06T01:51:04.916Z,24.47
2019-02-06T01:53:08.642Z,25.70
2019-02-06T01:55:14.507Z,23.23
2019-02-06T01:57:18.425Z,21.27
2019-02-06T01:59:22.197Z,20.30
2019-02-06T02:01:25.842Z,18.33
2019-02-06T02:03:29.642Z,20.70
2019-02-06T02:05:33.382Z,17.47
2019-02-06T02:07:37.174Z,18.40
2019-02-06T02:09:40.980Z,19.27
2019-02-06T02:11:44.982Z,16.77
2019-02-06T02:13:48.864Z,24.30
2019-02-06T02:15:52.656Z,19.30
2019-02-06T02:17:57.849Z,17.60
2019-02-06T02:20:04.049Z,18.00
2019-02-06T02:22:10.302Z,18.57
2019-02-06T02:24:14.060Z,21.33
2019-02-06T02:26:17.722Z,21.00
2019-02-06T02:28:23.150Z,20.80
2019-02-06T02:30:34.711Z,18.23
2019-02-06T02:32:38.499Z,20.93
2019-02-06T02:34:42.528Z,23.33
2019-02-06T02:36:46.233Z,18.17
2019-02-06T02:38:49.927Z,20.57
2019-02-06T02:40:53.656Z,24.73
2019-02-06T02:42:57.457Z,22.40
2019-02-06T02:45:01.577Z,25.40
2019-02-06T02:47:05.230Z,20.10
2019-02-06T02:49:08.948Z,21.70
2019-02-06T02:51:12.674Z,21.02
2019-02-06T02:53:16.453Z,22.30
2019-02-06T02:55:24.718Z,19.33
2019-02-06T02:57:28.432Z,24.80
2019-02-06T02:59:32.215Z,24.10
2019-02-06T03:01:46.630Z,22.50
2019-02-06T03:04:00.923Z,19.52
2019-02-06T03:06:06.218Z,19.67
2019-02-06T03:08:10.410Z,20.90
2019-02-06T03:10:14.353Z,22.20
2019-02-06T03:12:18.161Z,20.02
2019-02-06T03:14:22.030Z,24.18
2019-02-06T03:16:25.707Z,19.98
2019-02-06T03:18:29.478Z,20.33
2019-02-06T03:20:33.206Z,15.43
2019-02-06T03:22:36.875Z,18.83
2019-02-06T03:24:40.575Z,16.50
2019-02-06T03:26:44.224Z,18.65
2019-02-06T03:28:48.412Z,19.20
2019-02-06T03:30:52.023Z,18.13
2019-02-06T03:32:55.801Z,17.27
2019-02-06T03:34:59.603Z,16.80
2019-02-06T03:37:03.356Z,17.10
2019-02-06T03:39:08.525Z,15.30
2019-02-06T03:41:12.138Z,17.00
2019-02-06T03:43:15.824Z,18.13
2019-02-06T03:45:19.532Z,17.37
2019-02-06T03:47:23.164Z,16.20
2019-02-06T03:49:27.272Z,16.52
2019-02-06T03:51:31.041Z,14.60
2019-02-06T03:53:35.045Z,18.03
2019-02-06T03:55:38.796Z,15.50
2019-02-06T03:57:42.567Z,17.47
2019-02-06T03:59:46.430Z,14.33
2019-02-06T04:01:50.072Z,15.33
2019-02-06T04:03:54.470Z,15.53
2019-02-06T04:05:58.285Z,17.77
2019-02-06T04:08:01.906Z,18.97
2019-02-06T04:10:14.468Z,17.20
2019-02-06T04:12:18.299Z,19.90
2019-02-06T04:14:22.004Z,15.57
2019-02-06T04:16:25.614Z,17.70
2019-02-06T04:18:29.191Z,25.27
2019-02-06T04:20:33.433Z,20.75
2019-02-06T04:22:37.196Z,19.82
2019-02-06T04:24:40.899Z,20.23
2019-02-06T04:26:44.563Z,18.12
2019-02-06T04:28:48.289Z,21.73
2019-02-06T04:30:53.877Z,18.62
2019-02-06T04:32:57.593Z,16.90
2019-02-06T04:35:01.282Z,20.70
2019-02-06T04:37:06.947Z,18.12
2019-02-06T04:39:10.929Z,20.40
2019-02-06T04:41:15.121Z,22.53
2019-02-06T04:43:24.800Z,22.33
2019-02-06T04:45:24.211Z,23.87
2019-02-06T04:47:27.916Z,20.27
2019-02-06T04:49:31.581Z,19.32
2019-02-06T04:51:36.065Z,20.85
2019-02-06T04:53:39.942Z,23.40
2019-02-06T04:55:43.658Z,17.27
2019-02-06T04:57:47.449Z,18.12
2019-02-06T04:59:51.054Z,23.92
2019-02-06T05:01:54.822Z,24.43
2019-02-06T05:03:58.475Z,22.13
2019-02-06T05:06:02.238Z,25.85
2019-02-06T05:08:05.899Z,19.93
2019-02-06T05:10:14.266Z,23.50
2019-02-06T05:12:18.359Z,22.20
2019-02-06T05:14:22.113Z,26.68
2019-02-06T05:16:25.854Z,23.27
2019-02-06T05:18:29.425Z,17.95
2019-02-06T05:20:35.739Z,24.05
2019-02-06T05:22:40.933Z,23.25
2019-02-06T05:24:44.676Z,24.65
2019-02-06T05:26:50.035Z,21.85
2019-02-06T05:28:53.709Z,22.30
2019-02-06T05:30:57.379Z,24.80
2019-02-06T05:33:01.159Z,30.25
2019-02-06T05:35:05.274Z,23.30
2019-02-06T05:37:09.129Z,29.35
2019-02-06T05:39:12.853Z,27.87
2019-02-06T05:41:16.633Z,25.05
2019-02-06T05:43:22.047Z,25.55
2019-02-06T05:45:25.941Z,22.30
2019-02-06T05:47:29.794Z,25.17
2019-02-06T05:49:33.542Z,30.30
2019-02-06T05:51:37.657Z,22.35
2019-02-06T05:53:41.528Z,19.87
2019-02-06T05:55:45.277Z,21.55
2019-02-06T05:57:49.159Z,19.30
2019-02-06T05:59:52.997Z,21.07
2019-02-06T06:01:57.447Z,22.65
2019-02-06T06:04:01.198Z,21.05
2019-02-06T06:06:05.247Z,22.02
2019-02-06T06:08:09.152Z,24.72
2019-02-06T06:10:15.576Z,17.67
2019-02-06T06:12:19.846Z,24.57
2019-02-06T06:14:23.594Z,28.73
2019-02-06T06:16:27.335Z,28.05
2019-02-06T06:18:31.124Z,23.12
2019-02-06T06:20:34.908Z,23.77
2019-02-06T06:22:38.810Z,19.45
2019-02-06T06:24:42.568Z,20.55
2019-02-06T06:26:46.368Z,22.93
2019-02-06T06:28:50.264Z,20.12
2019-02-06T06:30:53.978Z,20.70
2019-02-06T06:32:57.666Z,20.88
2019-02-06T06:35:01.536Z,17.80
2019-02-06T06:37:05.391Z,18.48
2019-02-06T06:39:09.260Z,16.55
2019-02-06T06:41:14.655Z,16.60
2019-02-06T06:43:20.603Z,16.05
2019-02-06T06:45:25.591Z,20.30
2019-02-06T06:47:29.518Z,16.87
2019-02-06T06:49:33.346Z,17.98
2019-02-06T06:51:37.625Z,20.00
2019-02-06T06:53:41.674Z,18.25
2019-02-06T06:55:45.502Z,18.02
2019-02-06T06:57:49.357Z,18.65
2019-02-06T06:59:55.569Z,17.32
2019-02-06T07:02:00.300Z,20.20
2019-02-06T07:04:04.237Z,27.20
2019-02-06T07:06:08.107Z,27.85
2019-02-06T07:08:13.548Z,27.90
2019-02-06T07:10:18.241Z,20.15
2019-02-06T07:12:22.142Z,24.23
2019-02-06T07:14:26.141Z,19.10
2019-02-06T07:16:30.018Z,15.78
2019-02-06T07:18:33.923Z,16.17
2019-02-06T07:20:37.826Z,17.05
2019-02-06T07:22:41.711Z,16.35
2019-02-06T07:24:45.636Z,19.27
2019-02-06T07:26:49.525Z,15.32
2019-02-06T07:28:53.533Z,19.07
2019-02-06T07:30:57.329Z,19.23
2019-02-06T07:33:01.455Z,20.40
2019-02-06T07:35:08.079Z,17.80
2019-02-06T07:37:11.924Z,14.65
2019-02-06T07:39:15.916Z,19.12
2019-02-06T07:41:20.763Z,18.92
2019-02-06T07:43:24.718Z,21.42
2019-02-06T07:45:28.557Z,17.77
2019-02-06T07:47:32.437Z,16.90
2019-02-06T07:49:38.282Z,16.12
2019-02-06T07:51:42.065Z,18.60
2019-02-06T07:53:47.489Z,16.30
2019-02-06T07:55:51.383Z,18.27
2019-02-06T07:57:55.371Z,18.27
2019-02-06T08:00:00.340Z,17.20
2019-02-06T08:02:04.508Z,16.03
2019-02-06T08:04:08.436Z,13.93
2019-02-06T08:06:12.416Z,21.23
2019-02-06T08:08:16.435Z,34.73
2019-02-06T08:10:26.143Z,35.95
2019-02-06T08:12:30.011Z,35.57
2019-02-06T08:14:35.488Z,36.17
2019-02-06T08:16:39.390Z,32.63
2019-02-06T08:18:43.326Z,29.90
2019-02-06T08:20:47.328Z,23.17
2019-02-06T08:22:51.402Z,24.13
2019-02-06T08:24:55.553Z,24.57
2019-02-06T08:27:01.047Z,22.80
2019-02-06T08:29:05.022Z,24.27
2019-02-06T08:31:09.145Z,22.43
2019-02-06T08:33:13.214Z,22.60
2019-02-06T08:35:17.279Z,22.50
2019-02-06T08:37:21.188Z,30.57
2019-02-06T08:39:25.153Z,28.00
2019-02-06T08:41:29.094Z,27.40
2019-02-06T08:43:32.948Z,25.90
2019-02-06T08:45:36.964Z,24.40
2019-02-06T08:47:41.094Z,27.60
2019-02-06T08:49:45.049Z,25.33
2019-02-06T08:51:49.108Z,24.50
2019-02-06T08:53:52.975Z,27.13
2019-02-06T08:55:56.858Z,23.57
2019-02-06T08:58:02.670Z,34.70
2019-02-06T09:00:09.870Z,30.80
2019-02-06T09:02:13.837Z,32.50
2019-02-06T09:04:17.693Z,23.93
2019-02-06T09:06:21.635Z,22.40
2019-02-06T09:08:25.488Z,26.23
2019-02-06T09:10:31.010Z,22.33
2019-02-06T09:12:35.506Z,24.47
2019-02-06T09:14:39.729Z,29.60
2019-02-06T09:16:43.610Z,27.10
2019-02-06T09:18:47.466Z,31.03
2019-02-06T09:20:52.759Z,23.07
2019-02-06T09:23:01.235Z,24.97
2019-02-06T09:25:10.675Z,24.00
2019-02-06T09:27:16.055Z,32.30
2019-02-06T09:29:19.963Z,30.83
2019-02-06T09:31:25.643Z,22.57
2019-02-06T09:33:31.035Z,30.23
2019-02-06T09:35:35.026Z,25.53
2019-02-06T09:37:38.920Z,27.37
2019-02-06T09:39:42.756Z,26.10
2019-02-06T09:41:49.238Z,35.30
2019-02-06T09:43:54.618Z,35.30
2019-02-06T09:45:58.497Z,28.63
2019-02-06T09:48:02.351Z,22.50
2019-02-06T09:50:12.128Z,26.80
2019-02-06T09:52:16.819Z,25.83
2019-02-06T09:54:20.883Z,22.57
2019-02-06T09:56:24.818Z,22.80
2019-02-06T09:58:28.700Z,21.60
2019-02-06T10:00:35.281Z,24.57
2019-02-06T10:02:39.569Z,27.07
2019-02-06T10:04:43.396Z,29.57
2019-02-06T10:06:47.379Z,22.60
2019-02-06T10:08:52.251Z,23.23
2019-02-06T10:10:56.123Z,25.20
2019-02-06T10:13:00.269Z,26.93
2019-02-06T10:15:08.172Z,25.70
2019-02-06T10:17:12.312Z,24.43
2019-02-06T10:19:18.441Z,26.17
2019-02-06T10:21:22.316Z,22.07
2019-02-06T10:23:26.271Z,24.63
2019-02-06T10:25:30.460Z,25.90
2019-02-06T10:27:34.494Z,22.03
2019-02-06T10:29:38.458Z,24.73
2019-02-06T10:31:42.456Z,23.40
2019-02-06T10:33:46.291Z,25.07
2019-02-06T10:35:52.309Z,25.37
2019-02-06T10:37:55.907Z,23.30
2019-02-06T10:39:59.917Z,19.70
2019-02-06T10:42:03.906Z,29.23
2019-02-06T10:44:07.888Z,24.93
2019-02-06T10:46:11.737Z,29.93
2019-02-06T10:48:15.739Z,21.70
2019-02-06T10:50:25.077Z,27.10
2019-02-06T10:52:30.641Z,26.20
2019-02-06T10:54:34.500Z,26.83
2019-02-06T10:56:38.329Z,27.27
2019-02-06T10:58:42.255Z,29.50
2019-02-06T11:00:49.106Z,26.57
2019-02-06T11:02:53.107Z,27.60
2019-02-06T11:04:57.132Z,27.13
2019-02-06T11:07:01.038Z,26.17
2019-02-06T11:09:07.298Z,27.53
2019-02-06T11:11:13.948Z,22.80
2019-02-06T11:13:17.839Z,23.17
2019-02-06T11:15:23.267Z,24.90
2019-02-06T11:17:30.449Z,26.57
2019-02-06T11:19:34.526Z,25.50
2019-02-06T11:21:38.416Z,24.17
2019-02-06T11:23:42.592Z,22.00
2019-02-06T11:25:46.458Z,24.97
2019-02-06T11:27:55.974Z,26.63
2019-02-06T11:29:59.981Z,29.47
2019-02-06T11:32:03.857Z,25.30
2019-02-06T11:34:08.706Z,25.60
2019-02-06T11:36:23.799Z,25.97
2019-02-06T11:38:19.935Z,28.70
2019-02-06T11:40:25.259Z,28.20
2019-02-06T11:42:29.207Z,30.83
2019-02-06T11:44:33.517Z,28.20
2019-02-06T11:46:37.506Z,27.30
2019-02-06T11:48:43.361Z,27.43
2019-02-06T11:50:47.116Z,30.80
2019-02-06T11:52:51.964Z,26.40
2019-02-06T11:54:55.938Z,23.80
2019-02-06T11:57:01.392Z,25.60
2019-02-06T11:59:05.390Z,25.90
2019-02-06T12:01:14.819Z,27.00
2019-02-06T12:03:18.802Z,30.10
2019-02-06T12:05:22.772Z,26.77
2019-02-06T12:07:26.639Z,29.07
2019-02-06T12:09:32.045Z,26.40
2019-02-06T12:11:36.128Z,29.10
2019-02-06T12:13:42.223Z,29.07
2019-02-06T12:15:46.041Z,21.83
2019-02-06T12:17:50.208Z,26.50
2019-02-06T12:19:54.174Z,26.67
2019-02-06T12:21:58.194Z,27.63
2019-02-06T12:24:03.736Z,30.77
2019-02-06T12:26:07.715Z,31.50
2019-02-06T12:28:13.712Z,25.77
2019-02-06T12:30:29.614Z,27.13
2019-02-06T12:32:33.495Z,32.60
2019-02-06T12:34:39.025Z,20.40
2019-02-06T12:36:44.781Z,23.30
2019-02-06T12:38:53.606Z,22.57
2019-02-06T12:40:54.176Z,21.73
2019-02-06T12:42:58.806Z,23.50
2019-02-06T12:45:02.661Z,25.03
2019-02-06T12:47:09.322Z,25.47
2019-02-06T12:49:15.687Z,24.23
2019-02-06T12:51:19.587Z,26.90
2019-02-06T12:53:23.553Z,24.50
2019-02-06T12:55:34.202Z,21.17
2019-02-06T12:57:39.504Z,31.53
2019-02-06T12:59:43.452Z,25.80
2019-02-06T13:01:47.300Z,25.30
2019-02-06T13:03:51.229Z,21.30
2019-02-06T13:05:55.910Z,26.53
2019-02-06T13:08:00.418Z,27.37
2019-02-06T13:10:07.216Z,20.27
2019-02-06T13:12:11.166Z,21.57
2019-02-06T13:14:15.165Z,20.00
2019-02-06T13:16:19.342Z,21.13
2019-02-06T13:18:24.383Z,19.90
2019-02-06T13:20:33.996Z,18.57
2019-02-06T13:22:38.131Z,18.37
2019-02-06T13:24:41.932Z,13.23
2019-02-06T13:26:47.486Z,17.93
2019-02-06T13:28:53.600Z,18.40
2019-02-06T13:30:57.554Z,24.67
2019-02-06T13:33:01.749Z,24.60
2019-02-06T13:35:08.872Z,23.70
2019-02-06T13:37:12.854Z,22.80
2019-02-06T13:39:17.196Z,24.37
2019-02-06T13:41:21.162Z,25.90
2019-02-06T13:43:25.043Z,23.87
2019-02-06T13:45:40.850Z,22.73
2019-02-06T13:47:44.728Z,23.23
2019-02-06T13:49:50.181Z,29.60
2019-02-06T13:51:55.224Z,21.97
2019-02-06T13:53:59.112Z,21.33
2019-02-06T13:56:03.263Z,25.50
2019-02-06T13:58:19.760Z,23.43
2019-02-06T14:00:23.196Z,29.67
2019-02-06T14:02:28.850Z,23.00
2019-02-06T14:04:33.384Z,25.63
2019-02-06T14:06:37.357Z,22.70
2019-02-06T14:08:41.274Z,29.23
2019-02-06T14:10:58.370Z,28.43
2019-02-06T14:12:53.538Z,27.37
2019-02-06T14:14:57.773Z,25.27
2019-02-06T14:17:02.486Z,22.10
2019-02-06T14:19:06.521Z,25.37
2019-02-06T14:21:10.354Z,24.07
2019-02-06T14:23:28.367Z,24.27
2019-02-06T14:25:44.181Z,24.30
2019-02-06T14:27:53.171Z,22.77
2019-02-06T14:30:28.444Z,22.83
2019-02-06T14:32:35.454Z,27.60
2019-02-06T14:35:01.483Z,27.60
2019-02-06T14:37:14.304Z,22.70
2019-02-06T14:39:23.570Z,26.03
2019-02-06T14:41:33.155Z,26.73
2019-02-06T14:43:43.763Z,26.17
2019-02-06T14:45:53.377Z,21.67
2019-02-06T14:48:12.080Z,26.23
2019-02-06T14:50:21.701Z,24.13
2019-02-06T14:52:37.411Z,23.40
2019-02-06T14:54:53.166Z,21.80
2019-02-06T14:57:03.275Z,23.97
2019-02-06T14:59:21.985Z,25.23
2019-02-06T15:01:40.660Z,24.87
2019-02-06T15:03:59.166Z,21.30
2019-02-06T15:06:07.132Z,27.87
2019-02-06T15:08:27.035Z,26.67
2019-02-06T15:10:53.003Z,25.13
2019-02-06T15:13:05.624Z,23.20
2019-02-06T15:15:39.318Z,20.40
2019-02-06T15:18:07.145Z,21.57
2019-02-06T15:20:13.840Z,23.53
2019-02-06T15:22:29.553Z,27.20
2019-02-06T15:24:58.826Z,30.23
2019-02-06T15:27:08.365Z,35.00
2019-02-06T15:29:17.722Z,25.17
2019-02-06T15:31:30.230Z,25.70
2019-02-06T15:33:53.526Z,21.93
2019-02-06T15:36:06.737Z,22.57
2019-02-06T15:38:25.413Z,23.50
2019-02-06T15:40:40.643Z,21.40
2019-02-06T15:42:53.449Z,21.47
2019-02-06T15:45:05.319Z,28.30
2019-02-06T15:47:33.096Z,23.70
2019-02-06T15:49:46.779Z,23.80
2019-02-06T15:52:08.565Z,22.13
2019-02-06T15:54:15.285Z,21.07
2019-02-06T15:56:39.584Z,21.93
2019-02-06T15:58:49.167Z,21.80
2019-02-06T16:01:01.730Z,23.07
2019-02-06T16:03:20.319Z,23.67
2019-02-06T16:05:55.636Z,22.90
2019-02-06T16:08:08.210Z,21.83
2019-02-06T16:10:20.549Z,30.90
2019-02-06T16:12:52.990Z,26.53
2019-02-06T16:15:20.976Z,20.63
2019-02-06T16:17:27.673Z,25.90
2019-02-06T16:20:05.933Z,25.90
2019-02-06T16:22:30.118Z,36.23
2019-02-06T16:24:39.338Z,30.07
2019-02-06T16:27:02.619Z,39.43
2019-02-06T16:29:24.936Z,57.40
2019-02-06T16:31:43.300Z,50.47
2019-02-06T16:33:55.735Z,68.33
2019-02-06T16:36:22.119Z,49.70
2019-02-06T16:38:31.784Z,31.37
2019-02-06T16:40:54.076Z,30.40
2019-02-06T16:43:19.888Z,27.17
2019-02-06T16:45:34.488Z,24.13
2019-02-06T16:47:59.354Z,27.83
2019-02-06T16:50:30.219Z,29.43
2019-02-06T16:52:44.622Z,24.83
2019-02-06T16:54:56.428Z,41.20
2019-02-06T16:57:03.103Z,36.07
2019-02-06T16:59:34.093Z,38.17
2019-02-06T17:01:44.092Z,44.53
2019-02-06T17:04:14.535Z,37.73
2019-02-06T17:06:27.330Z,31.53
2019-02-06T17:08:53.341Z,34.33
2019-02-06T17:11:02.653Z,28.17
2019-02-06T17:13:09.368Z,19.90
2019-02-06T17:15:31.374Z,25.47
2019-02-06T17:17:55.974Z,27.93
2019-02-06T17:20:19.510Z,45.90
2019-02-06T17:22:35.120Z,43.80
2019-02-06T17:25:16.810Z,52.43
2019-02-06T17:27:41.571Z,31.37
2019-02-06T17:30:01.607Z,24.70
2019-02-06T17:32:40.411Z,25.97
2019-02-06T17:35:12.992Z,28.37
2019-02-06T17:37:34.057Z,28.20
2019-02-06T17:39:58.810Z,27.87
2019-02-06T17:42:15.999Z,25.60
2019-02-06T17:44:50.118Z,30.27
2019-02-06T17:46:58.352Z,29.33
2019-02-06T17:49:24.065Z,34.57
2019-02-06T17:51:41.546Z,30.90
2019-02-06T17:53:48.258Z,32.20
2019-02-06T17:55:52.313Z,28.87
2019-02-06T17:57:56.033Z,25.63
2019-02-06T18:00:03.305Z,32.17
2019-02-06T18:02:08.660Z,26.83
2019-02-06T18:04:13.327Z,26.00
2019-02-06T18:06:17.508Z,30.93
2019-02-06T18:08:21.310Z,31.50
2019-02-06T18:10:25.233Z,25.97
2019-02-06T18:12:30.374Z,32.27
2019-02-06T18:14:34.815Z,26.30
2019-02-06T18:16:39.332Z,34.47
2019-02-06T18:18:43.322Z,41.50
2019-02-06T18:20:47.061Z,37.03
2019-02-06T18:22:50.832Z,37.47
2019-02-06T18:24:55.057Z,35.10
2019-02-06T18:26:58.922Z,35.07
2019-02-06T18:29:03.956Z,32.10
2019-02-06T18:31:09.366Z,33.40
2019-02-06T18:33:14.806Z,37.80
2019-02-06T18:35:18.610Z,33.10
2019-02-06T18:37:23.517Z,28.47
2019-02-06T18:39:27.346Z,27.73
2019-02-06T18:41:31.271Z,25.43
2019-02-06T18:43:35.035Z,28.27
2019-02-06T18:45:40.629Z,23.03
2019-02-06T18:47:48.304Z,28.23
2019-02-06T18:49:52.101Z,27.93
2019-02-06T18:51:55.918Z,22.07
2019-02-06T18:54:01.880Z,24.33
2019-02-06T18:56:05.867Z,22.60
2019-02-06T18:58:09.797Z,24.03
2019-02-06T19:00:16.456Z,24.20
2019-02-06T19:02:20.910Z,27.50
2019-02-06T19:04:25.874Z,22.73
2019-02-06T19:06:30.475Z,28.57
2019-02-06T19:08:34.292Z,25.37
2019-02-06T19:10:38.869Z,24.20
2019-02-06T19:12:47.984Z,34.03
2019-02-06T19:14:54.082Z,24.50
2019-02-06T19:17:00.544Z,23.03
2019-02-06T19:19:08.666Z,23.93
2019-02-06T19:21:13.714Z,25.00
2019-02-06T19:23:17.933Z,35.43
2019-02-06T19:25:23.986Z,43.73
2019-02-06T19:27:47.826Z,37.77
2019-02-06T19:29:54.623Z,37.30
2019-02-06T19:32:00.517Z,46.20
2019-02-06T19:34:12.015Z,44.17
2019-02-06T19:36:17.250Z,37.00
2019-02-06T19:38:21.276Z,31.90
2019-02-06T19:40:25.099Z,37.50
2019-02-06T19:42:28.726Z,36.30
2019-02-06T19:44:32.443Z,35.90
2019-02-06T19:46:36.238Z,31.57
2019-02-06T19:48:40.231Z,28.83
2019-02-06T19:50:46.199Z,26.17
2019-02-06T19:52:50.784Z,29.10
2019-02-06T19:54:55.205Z,27.27
2019-02-06T19:56:58.940Z,33.03
2019-02-06T19:59:02.621Z,35.37
2019-02-06T20:01:06.364Z,34.57
2019-02-06T20:03:10.115Z,31.70
2019-02-06T20:05:16.145Z,27.43
2019-02-06T20:07:20.187Z,30.50
2019-02-06T20:09:24.572Z,28.30
2019-02-06T20:11:28.308Z,27.93
2019-02-06T20:13:32.464Z,21.33
2019-02-06T20:15:36.484Z,28.70
2019-02-06T20:17:42.042Z,35.53
2019-02-06T20:19:47.068Z,32.00
2019-02-06T20:21:50.794Z,26.57
2019-02-06T20:23:55.535Z,26.40
2019-02-06T20:25:59.290Z,33.20
2019-02-06T20:28:03.004Z,32.13
2019-02-06T20:30:27.114Z,33.70
2019-02-06T20:32:30.785Z,35.00
2019-02-06T20:34:38.179Z,41.00
2019-02-06T20:36:41.476Z,49.40
2019-02-06T20:38:45.182Z,58.77
2019-02-06T20:40:49.001Z,72.07
2019-02-06T20:42:53.466Z,81.97
2019-02-06T20:44:57.163Z,91.77
2019-02-06T20:47:00.818Z,80.33
2019-02-06T20:49:05.234Z,80.13
2019-02-06T20:51:09.082Z,69.40
2019-02-06T20:53:13.032Z,73.23
2019-02-06T20:55:17.186Z,56.57
2019-02-06T20:57:20.858Z,48.07
2019-02-06T20:59:25.069Z,35.40
2019-02-06T21:01:29.198Z,28.20
2019-02-06T21:03:32.999Z,23.77
2019-02-06T21:05:36.925Z,21.67
2019-02-06T21:07:40.800Z,27.57
2019-02-06T21:09:44.799Z,32.40
2019-02-06T21:11:48.600Z,32.40
2019-02-06T21:13:52.457Z,34.40
2019-02-06T21:15:56.262Z,35.53
2019-02-06T21:18:01.872Z,35.60
2019-02-06T21:20:13.379Z,41.50
2019-02-06T21:22:19.099Z,43.17
2019-02-06T21:24:23.543Z,44.57
2019-02-06T21:26:28.075Z,43.37
2019-02-06T21:28:32.122Z,43.07
2019-02-06T21:30:43.564Z,42.03
2019-02-06T21:32:47.505Z,41.87
2019-02-06T21:34:51.644Z,42.40
2019-02-06T21:36:55.475Z,36.27
2019-02-06T21:38:59.331Z,36.20
2019-02-06T21:41:03.236Z,38.13
2019-02-06T21:43:07.569Z,33.87
2019-02-06T21:45:12.274Z,38.03
2019-02-06T21:47:16.476Z,36.80
2019-02-06T21:49:20.589Z,44.13
2019-02-06T21:51:24.443Z,49.60
2019-02-06T21:53:28.275Z,59.03
2019-02-06T21:55:32.554Z,40.83
2019-02-06T21:57:36.359Z,41.57
2019-02-06T21:59:40.094Z,38.40
2019-02-06T22:01:45.015Z,44.00
2019-02-06T22:03:48.982Z,39.00
2019-02-06T22:05:52.649Z,34.50
2019-02-06T22:07:57.054Z,32.80
2019-02-06T22:10:01.387Z,43.53
2019-02-06T22:12:05.203Z,32.10
2019-02-06T22:14:09.209Z,37.20
2019-02-06T22:16:13.200Z,42.57
2019-02-06T22:18:17.558Z,35.10
2019-02-06T22:20:21.429Z,43.40
2019-02-06T22:22:28.926Z,40.93
2019-02-06T22:24:32.868Z,38.20
2019-02-06T22:26:36.784Z,36.93
2019-02-06T22:28:40.625Z,32.47
2019-02-06T22:30:45.566Z,35.17
2019-02-06T22:32:49.346Z,32.43
2019-02-06T22:34:53.052Z,36.20
2019-02-06T22:36:57.092Z,39.50
2019-02-06T22:39:00.862Z,40.87
2019-02-06T22:41:04.726Z,42.07
2019-02-06T22:43:08.504Z,37.50
2019-02-06T22:45:17.479Z,33.73
2019-02-06T22:47:22.762Z,37.83
2019-02-06T22:49:26.535Z,42.43
2019-02-06T22:51:30.382Z,54.07
2019-02-06T22:53:34.149Z,42.90
2019-02-06T22:55:38.323Z,38.53
2019-02-06T22:57:42.074Z,38.43
2019-02-06T22:59:45.851Z,36.50
2019-02-06T23:01:49.819Z,29.23
2019-02-06T23:03:53.638Z,28.40
2019-02-06T23:05:58.165Z,25.93
2019-02-06T23:08:01.926Z,32.07
2019-02-06T23:10:07.267Z,32.20
2019-02-06T23:12:13.927Z,33.83
2019-02-06T23:14:19.847Z,38.07
2019-02-06T23:16:23.183Z,35.43
2019-02-06T23:18:26.898Z,34.37
2019-02-06T23:20:30.688Z,37.27
2019-02-06T23:22:34.421Z,42.40
2019-02-06T23:24:38.187Z,32.07
2019-02-06T23:26:42.054Z,29.20
2019-02-06T23:28:45.772Z,27.47
2019-02-06T23:30:50.819Z,35.23
2019-02-06T23:32:56.777Z,31.60
2019-02-06T23:35:00.785Z,30.13
2019-02-06T23:37:04.641Z,26.50
2019-02-06T23:39:16.143Z,26.73
2019-02-06T23:41:21.859Z,30.50
2019-02-06T23:43:26.225Z,26.23
2019-02-06T23:45:30.174Z,33.77
2019-02-06T23:47:34.225Z,31.70
2019-02-06T23:49:38.020Z,29.23
2019-02-06T23:51:41.856Z,36.93
2019-02-06T23:53:49.979Z,26.70
2019-02-06T23:55:53.939Z,32.07
2019-02-06T23:58:00.850Z,43.57
